sensor_id;sensor_type;location;lat;lon;timestamp;temperature;humidity
46492;DHT22;32206;51.446;6.792;2023-03-19T00:09:22;11.60;99.90
46492;DHT22;32206;51.446;6.792;2023-03-19T00:11:48;11.60;99.90
46492;DHT22;32206;51.446;6.792;2023-03-19T00:14:15;11.60;99.90
46492;DHT22;32206;51.446;6.792;2023-03-19T00:20:32;11.60;99.90
46492;DHT22;32206;51.446;6.792;2023-03-19T00:22:57;11.60;99.90
46492;DHT22;32206;51.446;6.792;2023-03-19T00:25:23;11.70;99.90
46492;DHT22;32206;51.446;6.792;2023-03-19T00:27:49;11.60;99.90
46492;DHT22;32206;51.446;6.792;2023-03-19T00:30:16;11.60;99.90
46492;DHT22;32206;51.446;6.792;2023-03-19T00:32:41;11.60;99.90
46492;DHT22;32206;51.446;6.792;2023-03-19T00:35:07;11.50;99.90
46492;DHT22;32206;51.446;6.792;2023-03-19T00:37:34;11.50;99.90
46492;DHT22;32206;51.446;6.792;2023-03-19T00:43:25;11.40;99.90
46492;DHT22;32206;51.446;6.792;2023-03-19T00:45:51;11.50;99.90
46492;DHT22;32206;51.446;6.792;2023-03-19T00:51:39;11.40;99.90
46492;DHT22;32206;51.446;6.792;2023-03-19T00:54:09;11.30;99.90
46492;DHT22;32206;51.446;6.792;2023-03-19T00:56:35;11.30;99.90
46492;DHT22;32206;51.446;6.792;2023-03-19T00:59:01;11.20;99.90
46492;DHT22;32206;51.446;6.792;2023-03-19T01:01:27;11.20;99.90
46492;DHT22;32206;51.446;6.792;2023-03-19T01:03:52;11.20;99.90
46492;DHT22;32206;51.446;6.792;2023-03-19T01:06:18;11.20;99.90
46492;DHT22;32206;51.446;6.792;2023-03-19T01:12:02;11.10;99.90
46492;DHT22;32206;51.446;6.792;2023-03-19T01:14:30;11.00;99.90
46492;DHT22;32206;51.446;6.792;2023-03-19T01:16:56;11.00;99.90
46492;DHT22;32206;51.446;6.792;2023-03-19T01:19:22;11.00;99.90
46492;DHT22;32206;51.446;6.792;2023-03-19T01:21:48;10.90;99.90
46492;DHT22;32206;51.446;6.792;2023-03-19T01:24:14;10.90;99.90
46492;DHT22;32206;51.446;6.792;2023-03-19T01:26:41;10.90;99.90
46492;DHT22;32206;51.446;6.792;2023-03-19T01:29:07;10.80;99.90
46492;DHT22;32206;51.446;6.792;2023-03-19T01:31:33;10.90;99.90
46492;DHT22;32206;51.446;6.792;2023-03-19T01:34:05;10.90;99.90
46492;DHT22;32206;51.446;6.792;2023-03-19T01:36:31;10.80;99.90
46492;DHT22;32206;51.446;6.792;2023-03-19T01:38:56;10.80;99.90
46492;DHT22;32206;51.446;6.792;2023-03-19T01:41:22;10.90;99.90
46492;DHT22;32206;51.446;6.792;2023-03-19T01:43:48;10.90;99.90
46492;DHT22;32206;51.446;6.792;2023-03-19T01:46:32;10.80;99.90
46492;DHT22;32206;51.446;6.792;2023-03-19T01:49:00;10.80;99.90
46492;DHT22;32206;51.446;6.792;2023-03-19T01:51:29;10.80;99.90
46492;DHT22;32206;51.446;6.792;2023-03-19T01:53:59;10.80;99.90
46492;DHT22;32206;51.446;6.792;2023-03-19T01:59:52;10.80;99.90
46492;DHT22;32206;51.446;6.792;2023-03-19T02:09:03;10.90;99.90
46492;DHT22;32206;51.446;6.792;2023-03-19T02:11:29;10.90;99.90
46492;DHT22;32206;51.446;6.792;2023-03-19T02:13:56;10.90;99.90
46492;DHT22;32206;51.446;6.792;2023-03-19T02:16:21;11.00;99.90
46492;DHT22;32206;51.446;6.792;2023-03-19T02:22:10;11.00;99.90
46492;DHT22;32206;51.446;6.792;2023-03-19T02:24:47;11.10;99.90
46492;DHT22;32206;51.446;6.792;2023-03-19T02:27:14;11.10;99.90
46492;DHT22;32206;51.446;6.792;2023-03-19T02:29:47;11.10;99.90
46492;DHT22;32206;51.446;6.792;2023-03-19T02:39:20;11.10;99.90
46492;DHT22;32206;51.446;6.792;2023-03-19T02:41:47;11.10;99.90
46492;DHT22;32206;51.446;6.792;2023-03-19T02:44:13;11.10;99.90
46492;DHT22;32206;51.446;6.792;2023-03-19T02:46:39;11.20;99.90
46492;DHT22;32206;51.446;6.792;2023-03-19T02:49:04;11.20;98.60
46492;DHT22;32206;51.446;6.792;2023-03-19T02:51:30;11.20;97.30
46492;DHT22;32206;51.446;6.792;2023-03-19T02:53:55;11.30;96.60
46492;DHT22;32206;51.446;6.792;2023-03-19T02:59:43;11.40;94.40
46492;DHT22;32206;51.446;6.792;2023-03-19T03:02:09;11.40;94.50
46492;DHT22;32206;51.446;6.792;2023-03-19T03:07:57;11.30;93.80
46492;DHT22;32206;51.446;6.792;2023-03-19T03:10:24;11.30;93.30
46492;DHT22;32206;51.446;6.792;2023-03-19T03:12:50;11.20;93.30
46492;DHT22;32206;51.446;6.792;2023-03-19T03:15:16;11.20;94.40
46492;DHT22;32206;51.446;6.792;2023-03-19T03:17:43;11.20;93.40
46492;DHT22;32206;51.446;6.792;2023-03-19T03:20:12;11.20;94.80
46492;DHT22;32206;51.446;6.792;2023-03-19T03:22:38;11.20;94.40
46492;DHT22;32206;51.446;6.792;2023-03-19T03:25:05;11.20;96.30
46492;DHT22;32206;51.446;6.792;2023-03-19T03:27:31;11.20;94.30
46492;DHT22;32206;51.446;6.792;2023-03-19T03:29:59;11.20;96.10
46492;DHT22;32206;51.446;6.792;2023-03-19T03:32:24;11.20;96.80
46492;DHT22;32206;51.446;6.792;2023-03-19T03:34:50;11.10;96.60
46492;DHT22;32206;51.446;6.792;2023-03-19T03:37:16;11.10;97.00
46492;DHT22;32206;51.446;6.792;2023-03-19T03:39:42;11.10;96.70
46492;DHT22;32206;51.446;6.792;2023-03-19T03:45:30;11.10;96.60
46492;DHT22;32206;51.446;6.792;2023-03-19T03:47:56;11.00;97.30
46492;DHT22;32206;51.446;6.792;2023-03-19T03:50:22;10.90;98.70
46492;DHT22;32206;51.446;6.792;2023-03-19T03:52:48;10.90;98.90
46492;DHT22;32206;51.446;6.792;2023-03-19T03:55:13;11.00;98.90
46492;DHT22;32206;51.446;6.792;2023-03-19T04:01:02;10.90;98.90
46492;DHT22;32206;51.446;6.792;2023-03-19T04:06:50;10.90;99.90
46492;DHT22;32206;51.446;6.792;2023-03-19T04:09:16;10.90;99.90
46492;DHT22;32206;51.446;6.792;2023-03-19T04:18:23;10.80;99.90
46492;DHT22;32206;51.446;6.792;2023-03-19T04:20:48;10.90;99.90
46492;DHT22;32206;51.446;6.792;2023-03-19T04:23:14;10.90;99.90
46492;DHT22;32206;51.446;6.792;2023-03-19T04:25:40;10.90;99.90
46492;DHT22;32206;51.446;6.792;2023-03-19T04:31:27;10.90;99.90
46492;DHT22;32206;51.446;6.792;2023-03-19T04:33:53;10.90;99.90
46492;DHT22;32206;51.446;6.792;2023-03-19T04:36:19;10.90;99.90
46492;DHT22;32206;51.446;6.792;2023-03-19T04:38:45;10.90;99.90
46492;DHT22;32206;51.446;6.792;2023-03-19T04:41:12;11.00;99.90
46492;DHT22;32206;51.446;6.792;2023-03-19T04:43:38;11.00;99.90
46492;DHT22;32206;51.446;6.792;2023-03-19T04:46:04;11.00;99.90
46492;DHT22;32206;51.446;6.792;2023-03-19T04:48:32;11.00;99.90
46492;DHT22;32206;51.446;6.792;2023-03-19T04:51:00;11.00;99.90
46492;DHT22;32206;51.446;6.792;2023-03-19T04:53:27;11.00;99.90
46492;DHT22;32206;51.446;6.792;2023-03-19T04:55:53;11.00;99.90
46492;DHT22;32206;51.446;6.792;2023-03-19T04:58:19;11.10;99.90
46492;DHT22;32206;51.446;6.792;2023-03-19T05:00:45;11.10;99.90
46492;DHT22;32206;51.446;6.792;2023-03-19T05:03:13;11.10;99.90
46492;DHT22;32206;51.446;6.792;2023-03-19T05:05:38;11.10;99.90
46492;DHT22;32206;51.446;6.792;2023-03-19T05:08:04;11.10;99.90
46492;DHT22;32206;51.446;6.792;2023-03-19T05:10:30;11.10;99.90
46492;DHT22;32206;51.446;6.792;2023-03-19T05:12:56;11.10;99.90
46492;DHT22;32206;51.446;6.792;2023-03-19T05:15:22;11.10;99.90
46492;DHT22;32206;51.446;6.792;2023-03-19T05:17:48;11.10;99.90
46492;DHT22;32206;51.446;6.792;2023-03-19T05:20:14;11.20;99.90
46492;DHT22;32206;51.446;6.792;2023-03-19T05:22:40;11.20;99.90
46492;DHT22;32206;51.446;6.792;2023-03-19T05:25:06;11.20;99.90
46492;DHT22;32206;51.446;6.792;2023-03-19T05:30:54;11.20;99.90
46492;DHT22;32206;51.446;6.792;2023-03-19T05:33:21;11.20;99.90
46492;DHT22;32206;51.446;6.792;2023-03-19T05:35:47;11.20;99.90
46492;DHT22;32206;51.446;6.792;2023-03-19T05:38:13;11.20;99.90
46492;DHT22;32206;51.446;6.792;2023-03-19T05:40:38;11.20;99.90
46492;DHT22;32206;51.446;6.792;2023-03-19T05:43:07;11.20;99.90
46492;DHT22;32206;51.446;6.792;2023-03-19T05:45:34;11.20;99.90
46492;DHT22;32206;51.446;6.792;2023-03-19T05:48:01;11.20;99.90
46492;DHT22;32206;51.446;6.792;2023-03-19T05:50:27;11.20;99.90
46492;DHT22;32206;51.446;6.792;2023-03-19T05:52:53;11.20;99.90
46492;DHT22;32206;51.446;6.792;2023-03-19T05:55:19;11.20;99.90
46492;DHT22;32206;51.446;6.792;2023-03-19T06:01:38;11.10;99.90
46492;DHT22;32206;51.446;6.792;2023-03-19T06:04:04;11.00;99.90
46492;DHT22;32206;51.446;6.792;2023-03-19T06:06:29;10.90;99.90
46492;DHT22;32206;51.446;6.792;2023-03-19T06:08:56;10.90;99.90
46492;DHT22;32206;51.446;6.792;2023-03-19T06:11:21;10.90;99.90
46492;DHT22;32206;51.446;6.792;2023-03-19T06:17:09;10.80;99.90
46492;DHT22;32206;51.446;6.792;2023-03-19T06:19:35;10.80;99.90
46492;DHT22;32206;51.446;6.792;2023-03-19T06:22:01;10.80;99.90
46492;DHT22;32206;51.446;6.792;2023-03-19T06:24:26;10.80;99.90
46492;DHT22;32206;51.446;6.792;2023-03-19T06:26:55;10.80;99.90
46492;DHT22;32206;51.446;6.792;2023-03-19T06:29:20;10.80;99.90
46492;DHT22;32206;51.446;6.792;2023-03-19T06:31:46;10.80;99.90
46492;DHT22;32206;51.446;6.792;2023-03-19T06:34:12;10.80;99.90
46492;DHT22;32206;51.446;6.792;2023-03-19T06:40:00;10.80;99.90
46492;DHT22;32206;51.446;6.792;2023-03-19T06:49:10;10.90;99.90
46492;DHT22;32206;51.446;6.792;2023-03-19T06:51:35;10.90;99.90
46492;DHT22;32206;51.446;6.792;2023-03-19T06:54:01;10.90;99.90
46492;DHT22;32206;51.446;6.792;2023-03-19T06:56:27;10.90;99.90
46492;DHT22;32206;51.446;6.792;2023-03-19T06:58:54;10.90;99.90
46492;DHT22;32206;51.446;6.792;2023-03-19T07:01:19;10.90;99.90
46492;DHT22;32206;51.446;6.792;2023-03-19T07:03:46;10.90;99.90
46492;DHT22;32206;51.446;6.792;2023-03-19T07:06:11;10.80;99.90
46492;DHT22;32206;51.446;6.792;2023-03-19T07:08:37;10.90;99.90
46492;DHT22;32206;51.446;6.792;2023-03-19T07:11:04;10.90;99.90
46492;DHT22;32206;51.446;6.792;2023-03-19T07:17:27;10.90;99.90
46492;DHT22;32206;51.446;6.792;2023-03-19T07:19:52;11.00;99.90
46492;DHT22;32206;51.446;6.792;2023-03-19T07:22:18;11.00;99.90
46492;DHT22;32206;51.446;6.792;2023-03-19T07:31:15;11.10;99.90
46492;DHT22;32206;51.446;6.792;2023-03-19T07:33:41;11.10;99.90
46492;DHT22;32206;51.446;6.792;2023-03-19T07:46:13;11.20;99.90
46492;DHT22;32206;51.446;6.792;2023-03-19T07:48:39;11.30;99.90
46492;DHT22;32206;51.446;6.792;2023-03-19T07:51:05;11.30;99.90
46492;DHT22;32206;51.446;6.792;2023-03-19T07:53:31;11.40;99.90
46492;DHT22;32206;51.446;6.792;2023-03-19T07:55:57;11.50;99.90
46492;DHT22;32206;51.446;6.792;2023-03-19T08:05:07;11.50;99.90
46492;DHT22;32206;51.446;6.792;2023-03-19T08:10:56;11.60;99.90
46492;DHT22;32206;51.446;6.792;2023-03-19T08:20:11;11.90;99.90
46492;DHT22;32206;51.446;6.792;2023-03-19T08:22:38;11.90;99.90
46492;DHT22;32206;51.446;6.792;2023-03-19T08:25:05;11.80;99.90
46492;DHT22;32206;51.446;6.792;2023-03-19T08:27:32;11.90;99.90
46492;DHT22;32206;51.446;6.792;2023-03-19T08:30:01;11.80;99.90
46492;DHT22;32206;51.446;6.792;2023-03-19T08:32:28;11.80;99.90
46492;DHT22;32206;51.446;6.792;2023-03-19T08:34:54;11.80;99.90
46492;DHT22;32206;51.446;6.792;2023-03-19T08:37:20;11.80;99.90
46492;DHT22;32206;51.446;6.792;2023-03-19T08:39:46;11.90;99.90
46492;DHT22;32206;51.446;6.792;2023-03-19T08:42:11;12.00;99.90
46492;DHT22;32206;51.446;6.792;2023-03-19T08:44:37;12.00;99.90
46492;DHT22;32206;51.446;6.792;2023-03-19T08:47:03;12.20;99.90
46492;DHT22;32206;51.446;6.792;2023-03-19T08:49:28;12.30;99.90
46492;DHT22;32206;51.446;6.792;2023-03-19T08:55:17;12.40;99.90
46492;DHT22;32206;51.446;6.792;2023-03-19T08:57:43;12.70;99.90
46492;DHT22;32206;51.446;6.792;2023-03-19T09:00:09;12.80;99.90
46492;DHT22;32206;51.446;6.792;2023-03-19T09:02:35;12.90;98.50
46492;DHT22;32206;51.446;6.792;2023-03-19T09:05:01;13.10;97.50
46492;DHT22;32206;51.446;6.792;2023-03-19T09:10:54;13.20;91.40
46492;DHT22;32206;51.446;6.792;2023-03-19T09:13:20;13.20;89.90
46492;DHT22;32206;51.446;6.792;2023-03-19T09:15:45;13.20;89.30
46492;DHT22;32206;51.446;6.792;2023-03-19T09:18:11;13.10;85.50
46492;DHT22;32206;51.446;6.792;2023-03-19T09:20:37;13.20;87.00
46492;DHT22;32206;51.446;6.792;2023-03-19T09:26:30;13.50;90.10
46492;DHT22;32206;51.446;6.792;2023-03-19T09:28:56;13.50;77.60
46492;DHT22;32206;51.446;6.792;2023-03-19T09:31:22;13.20;78.40
46492;DHT22;32206;51.446;6.792;2023-03-19T09:33:48;13.20;82.80
46492;DHT22;32206;51.446;6.792;2023-03-19T09:36:14;13.10;87.20
46492;DHT22;32206;51.446;6.792;2023-03-19T09:45:26;13.20;85.30
46492;DHT22;32206;51.446;6.792;2023-03-19T09:47:56;13.10;85.40
46492;DHT22;32206;51.446;6.792;2023-03-19T09:50:25;13.00;85.40
46492;DHT22;32206;51.446;6.792;2023-03-19T09:53:13;13.00;92.80
46492;DHT22;32206;51.446;6.792;2023-03-19T09:55:46;13.10;92.20
46492;DHT22;32206;51.446;6.792;2023-03-19T10:04:32;13.30;85.00
46492;DHT22;32206;51.446;6.792;2023-03-19T10:07:25;13.40;83.10
46492;DHT22;32206;51.446;6.792;2023-03-19T10:12:44;13.50;76.20
46492;DHT22;32206;51.446;6.792;2023-03-19T10:15:28;13.60;72.30
46492;DHT22;32206;51.446;6.792;2023-03-19T10:29:37;13.70;67.40
46492;DHT22;32206;51.446;6.792;2023-03-19T10:34:50;13.40;76.20
46492;DHT22;32206;51.446;6.792;2023-03-19T10:37:20;13.40;84.80
46492;DHT22;32206;51.446;6.792;2023-03-19T10:39:48;13.40;83.80
46492;DHT22;32206;51.446;6.792;2023-03-19T10:45:13;13.30;85.80
46492;DHT22;32206;51.446;6.792;2023-03-19T10:47:43;13.10;90.80
46492;DHT22;32206;51.446;6.792;2023-03-19T10:50:18;13.00;96.30
46492;DHT22;32206;51.446;6.792;2023-03-19T10:52:44;12.90;99.90
46492;DHT22;32206;51.446;6.792;2023-03-19T10:55:16;12.80;99.90
46492;DHT22;32206;51.446;6.792;2023-03-19T10:57:45;12.70;99.90
46492;DHT22;32206;51.446;6.792;2023-03-19T11:07:08;12.80;99.90
46492;DHT22;32206;51.446;6.792;2023-03-19T11:13:23;12.90;99.90
46492;DHT22;32206;51.446;6.792;2023-03-19T11:22:35;13.00;99.90
46492;DHT22;32206;51.446;6.792;2023-03-19T11:28:25;13.20;99.90
46492;DHT22;32206;51.446;6.792;2023-03-19T11:36:35;13.80;99.90
46492;DHT22;32206;51.446;6.792;2023-03-19T11:45:39;14.00;93.40
46492;DHT22;32206;51.446;6.792;2023-03-19T11:50:55;14.20;93.60
46492;DHT22;32206;51.446;6.792;2023-03-19T12:02:57;14.40;77.60
46492;DHT22;32206;51.446;6.792;2023-03-19T12:06:18;14.40;90.50
46492;DHT22;32206;51.446;6.792;2023-03-19T12:12:12;14.50;79.80
46492;DHT22;32206;51.446;6.792;2023-03-19T12:14:53;14.40;57.60
46492;DHT22;32206;51.446;6.792;2023-03-19T12:26:07;14.50;68.30
46492;DHT22;32206;51.446;6.792;2023-03-19T12:28:47;14.70;57.50
46492;DHT22;32206;51.446;6.792;2023-03-19T12:31:24;14.90;47.50
46492;DHT22;32206;51.446;6.792;2023-03-19T12:37:15;15.10;33.90
46492;DHT22;32206;51.446;6.792;2023-03-19T12:42:37;15.10;13.70
46492;DHT22;32206;51.446;6.792;2023-03-19T12:45:11;15.10;14.00
46492;DHT22;32206;51.446;6.792;2023-03-19T12:47:41;15.20;16.60
46492;DHT22;32206;51.446;6.792;2023-03-19T12:50:10;15.50;23.40
46492;DHT22;32206;51.446;6.792;2023-03-19T12:52:40;15.70;16.40
46492;DHT22;32206;51.446;6.792;2023-03-19T13:03:02;16.10;8.00
46492;DHT22;32206;51.446;6.792;2023-03-19T13:05:44;16.20;4.20
46492;DHT22;32206;51.446;6.792;2023-03-19T13:16:47;16.80;1.00
46492;DHT22;32206;51.446;6.792;2023-03-19T13:21:55;17.90;1.00
46492;DHT22;32206;51.446;6.792;2023-03-19T13:24:39;18.20;1.00
46492;DHT22;32206;51.446;6.792;2023-03-19T13:27:12;18.10;1.00
46492;DHT22;32206;51.446;6.792;2023-03-19T13:29:55;18.10;99.90
46492;DHT22;32206;51.446;6.792;2023-03-19T13:35:34;17.90;99.90
46492;DHT22;32206;51.446;6.792;2023-03-19T13:46:52;18.20;99.90
46492;DHT22;32206;51.446;6.792;2023-03-19T13:48:51;18.00;99.90
46492;DHT22;32206;51.446;6.792;2023-03-19T13:53:53;17.90;99.90
46492;DHT22;32206;51.446;6.792;2023-03-19T13:56:20;17.60;99.90
46492;DHT22;32206;51.446;6.792;2023-03-19T13:58:51;17.10;1.00
46492;DHT22;32206;51.446;6.792;2023-03-19T14:04:23;16.40;1.00
46492;DHT22;32206;51.446;6.792;2023-03-19T14:06:56;16.10;1.00
46492;DHT22;32206;51.446;6.792;2023-03-19T14:11:54;15.70;1.00
46492;DHT22;32206;51.446;6.792;2023-03-19T14:14:22;15.60;1.00
46492;DHT22;32206;51.446;6.792;2023-03-19T14:16:50;15.60;1.00
46492;DHT22;32206;51.446;6.792;2023-03-19T14:19:18;15.60;1.00
46492;DHT22;32206;51.446;6.792;2023-03-19T14:22:06;15.60;1.00
46492;DHT22;32206;51.446;6.792;2023-03-19T14:24:34;15.50;1.00
46492;DHT22;32206;51.446;6.792;2023-03-19T14:30:32;15.40;3.90
46492;DHT22;32206;51.446;6.792;2023-03-19T14:33:02;15.20;1.00
46492;DHT22;32206;51.446;6.792;2023-03-19T14:35:38;15.10;6.00
46492;DHT22;32206;51.446;6.792;2023-03-19T14:38:15;15.10;1.50
46492;DHT22;32206;51.446;6.792;2023-03-19T14:40:50;15.40;1.00
46492;DHT22;32206;51.446;6.792;2023-03-19T14:46:03;15.50;1.00
46492;DHT22;32206;51.446;6.792;2023-03-19T14:48:57;15.80;1.00
46492;DHT22;32206;51.446;6.792;2023-03-19T14:51:35;16.00;1.00
46492;DHT22;32206;51.446;6.792;2023-03-19T14:54:34;16.10;1.00
46492;DHT22;32206;51.446;6.792;2023-03-19T15:00:28;16.50;1.00
46492;DHT22;32206;51.446;6.792;2023-03-19T15:02:54;16.60;1.00
46492;DHT22;32206;51.446;6.792;2023-03-19T15:05:27;16.40;1.00
46492;DHT22;32206;51.446;6.792;2023-03-19T15:08:04;16.10;1.00
46492;DHT22;32206;51.446;6.792;2023-03-19T15:19:25;15.60;1.00
46492;DHT22;32206;51.446;6.792;2023-03-19T15:21:50;15.50;1.00
46492;DHT22;32206;51.446;6.792;2023-03-19T15:27:39;15.50;1.00
46492;DHT22;32206;51.446;6.792;2023-03-19T15:30:21;15.40;1.00
46492;DHT22;32206;51.446;6.792;2023-03-19T15:32:47;15.30;1.00
46492;DHT22;32206;51.446;6.792;2023-03-19T15:35:13;15.30;1.00
46492;DHT22;32206;51.446;6.792;2023-03-19T15:37:41;15.30;1.00
46492;DHT22;32206;51.446;6.792;2023-03-19T15:43:51;15.30;1.00
46492;DHT22;32206;51.446;6.792;2023-03-19T15:46:21;15.20;1.00
46492;DHT22;32206;51.446;6.792;2023-03-19T15:48:54;15.20;1.00
46492;DHT22;32206;51.446;6.792;2023-03-19T15:51:22;15.20;1.00
46492;DHT22;32206;51.446;6.792;2023-03-19T15:53:49;15.10;1.00
46492;DHT22;32206;51.446;6.792;2023-03-19T15:59:31;15.10;1.00
46492;DHT22;32206;51.446;6.792;2023-03-19T16:01:59;15.10;1.00
46492;DHT22;32206;51.446;6.792;2023-03-19T16:04:26;15.20;1.00
46492;DHT22;32206;51.446;6.792;2023-03-19T16:06:55;15.20;1.00
46492;DHT22;32206;51.446;6.792;2023-03-19T16:09:25;15.20;1.00
46492;DHT22;32206;51.446;6.792;2023-03-19T16:12:39;15.20;1.00
46492;DHT22;32206;51.446;6.792;2023-03-19T16:15:24;15.30;1.00
46492;DHT22;32206;51.446;6.792;2023-03-19T16:17:53;15.30;1.00
46492;DHT22;32206;51.446;6.792;2023-03-19T16:20:18;15.20;1.00
46492;DHT22;32206;51.446;6.792;2023-03-19T16:22:54;15.10;1.00
46492;DHT22;32206;51.446;6.792;2023-03-19T16:25:26;15.20;1.00
46492;DHT22;32206;51.446;6.792;2023-03-19T16:27:54;15.10;1.00
46492;DHT22;32206;51.446;6.792;2023-03-19T16:30:25;15.10;1.00
46492;DHT22;32206;51.446;6.792;2023-03-19T16:33:02;15.00;1.00
46492;DHT22;32206;51.446;6.792;2023-03-19T16:35:31;15.10;1.00
46492;DHT22;32206;51.446;6.792;2023-03-19T16:40:39;15.10;1.00
46492;DHT22;32206;51.446;6.792;2023-03-19T16:46:31;15.10;1.00
46492;DHT22;32206;51.446;6.792;2023-03-19T16:48:58;14.90;1.00
46492;DHT22;32206;51.446;6.792;2023-03-19T16:51:24;14.80;1.00
46492;DHT22;32206;51.446;6.792;2023-03-19T16:53:49;14.80;1.00
46492;DHT22;32206;51.446;6.792;2023-03-19T16:56:15;14.70;1.00
46492;DHT22;32206;51.446;6.792;2023-03-19T16:58:43;14.70;1.00
46492;DHT22;32206;51.446;6.792;2023-03-19T17:01:17;14.70;1.00
46492;DHT22;32206;51.446;6.792;2023-03-19T17:03:44;14.70;1.00
46492;DHT22;32206;51.446;6.792;2023-03-19T17:06:13;14.70;1.00
46492;DHT22;32206;51.446;6.792;2023-03-19T17:08:40;14.70;1.00
46492;DHT22;32206;51.446;6.792;2023-03-19T17:11:22;14.70;1.00
46492;DHT22;32206;51.446;6.792;2023-03-19T17:13:50;14.70;1.00
46492;DHT22;32206;51.446;6.792;2023-03-19T17:16:16;14.60;1.20
46492;DHT22;32206;51.446;6.792;2023-03-19T17:18:42;14.70;1.00
46492;DHT22;32206;51.446;6.792;2023-03-19T17:21:35;14.70;1.00
46492;DHT22;32206;51.446;6.792;2023-03-19T17:24:25;14.70;1.00
46492;DHT22;32206;51.446;6.792;2023-03-19T17:26:51;14.70;1.00
46492;DHT22;32206;51.446;6.792;2023-03-19T17:29:18;14.70;1.00
46492;DHT22;32206;51.446;6.792;2023-03-19T17:31:45;14.60;1.00
46492;DHT22;32206;51.446;6.792;2023-03-19T17:36:38;14.60;1.00
46492;DHT22;32206;51.446;6.792;2023-03-19T17:39:05;14.60;1.00
46492;DHT22;32206;51.446;6.792;2023-03-19T17:41:31;14.50;1.00
46492;DHT22;32206;51.446;6.792;2023-03-19T17:47:10;14.50;1.00
46492;DHT22;32206;51.446;6.792;2023-03-19T17:49:36;14.40;1.00
46492;DHT22;32206;51.446;6.792;2023-03-19T17:52:19;14.40;1.00
46492;DHT22;32206;51.446;6.792;2023-03-19T17:54:47;14.40;1.00
46492;DHT22;32206;51.446;6.792;2023-03-19T17:57:14;14.40;1.00
46492;DHT22;32206;51.446;6.792;2023-03-19T18:03:02;14.40;1.00
46492;DHT22;32206;51.446;6.792;2023-03-19T18:12:21;14.30;1.00
46492;DHT22;32206;51.446;6.792;2023-03-19T18:14:47;14.20;1.00
46492;DHT22;32206;51.446;6.792;2023-03-19T18:17:16;14.20;1.00
46492;DHT22;32206;51.446;6.792;2023-03-19T18:19:44;14.20;1.00
46492;DHT22;32206;51.446;6.792;2023-03-19T18:22:14;14.10;1.00
46492;DHT22;32206;51.446;6.792;2023-03-19T18:24:39;14.10;1.00
46492;DHT22;32206;51.446;6.792;2023-03-19T18:27:05;14.10;1.00
46492;DHT22;32206;51.446;6.792;2023-03-19T18:32:59;14.10;1.00
46492;DHT22;32206;51.446;6.792;2023-03-19T18:35:45;14.10;1.00
46492;DHT22;32206;51.446;6.792;2023-03-19T18:38:17;14.00;2.30
46492;DHT22;32206;51.446;6.792;2023-03-19T18:40:43;14.00;1.70
46492;DHT22;32206;51.446;6.792;2023-03-19T18:49:53;14.00;5.90
46492;DHT22;32206;51.446;6.792;2023-03-19T18:52:22;14.00;16.40
46492;DHT22;32206;51.446;6.792;2023-03-19T18:54:47;13.90;23.70
46492;DHT22;32206;51.446;6.792;2023-03-19T18:57:13;13.80;24.70
46492;DHT22;32206;51.446;6.792;2023-03-19T18:59:40;13.80;28.10
46492;DHT22;32206;51.446;6.792;2023-03-19T19:04:50;13.70;31.50
46492;DHT22;32206;51.446;6.792;2023-03-19T19:11:00;13.60;32.40
46492;DHT22;32206;51.446;6.792;2023-03-19T19:13:31;13.50;31.40
46492;DHT22;32206;51.446;6.792;2023-03-19T19:15:57;13.50;34.50
46492;DHT22;32206;51.446;6.792;2023-03-19T19:34:57;13.20;33.60
46492;DHT22;32206;51.446;6.792;2023-03-19T19:37:23;13.20;33.70
46492;DHT22;32206;51.446;6.792;2023-03-19T19:39:49;13.20;32.90
46492;DHT22;32206;51.446;6.792;2023-03-19T19:42:17;13.20;33.70
46492;DHT22;32206;51.446;6.792;2023-03-19T19:44:52;13.20;37.50
46492;DHT22;32206;51.446;6.792;2023-03-19T19:47:18;13.20;37.80
46492;DHT22;32206;51.446;6.792;2023-03-19T19:49:44;13.20;32.90
46492;DHT22;32206;51.446;6.792;2023-03-19T19:52:17;13.10;33.40
46492;DHT22;32206;51.446;6.792;2023-03-19T19:54:44;13.10;31.90
46492;DHT22;32206;51.446;6.792;2023-03-19T19:57:17;13.10;34.30
46492;DHT22;32206;51.446;6.792;2023-03-19T20:03:05;13.00;35.70
46492;DHT22;32206;51.446;6.792;2023-03-19T20:05:32;13.00;41.10
46492;DHT22;32206;51.446;6.792;2023-03-19T20:07:59;12.90;44.80
46492;DHT22;32206;51.446;6.792;2023-03-19T20:10:28;12.90;50.50
46492;DHT22;32206;51.446;6.792;2023-03-19T20:12:56;12.80;52.20
46492;DHT22;32206;51.446;6.792;2023-03-19T20:18:45;12.70;55.90
46492;DHT22;32206;51.446;6.792;2023-03-19T20:21:13;12.70;62.50
46492;DHT22;32206;51.446;6.792;2023-03-19T20:23:40;12.60;61.80
46492;DHT22;32206;51.446;6.792;2023-03-19T20:30:04;12.50;48.60
46492;DHT22;32206;51.446;6.792;2023-03-19T20:32:46;12.50;52.50
46492;DHT22;32206;51.446;6.792;2023-03-19T20:35:24;12.30;50.30
46492;DHT22;32206;51.446;6.792;2023-03-19T20:51:24;11.80;65.30
46492;DHT22;32206;51.446;6.792;2023-03-19T20:53:51;11.70;67.80
46492;DHT22;32206;51.446;6.792;2023-03-19T20:56:19;11.70;67.90
46492;DHT22;32206;51.446;6.792;2023-03-19T20:58:46;11.60;69.00
46492;DHT22;32206;51.446;6.792;2023-03-19T21:04:34;11.50;72.40
46492;DHT22;32206;51.446;6.792;2023-03-19T21:07:00;11.50;74.80
46492;DHT22;32206;51.446;6.792;2023-03-19T21:09:25;11.40;76.60
46492;DHT22;32206;51.446;6.792;2023-03-19T21:11:51;11.40;74.10
46492;DHT22;32206;51.446;6.792;2023-03-19T21:14:17;11.40;71.20
46492;DHT22;32206;51.446;6.792;2023-03-19T21:16:43;11.20;71.60
46492;DHT22;32206;51.446;6.792;2023-03-19T21:19:08;11.10;69.00
46492;DHT22;32206;51.446;6.792;2023-03-19T21:21:35;11.10;72.40
46492;DHT22;32206;51.446;6.792;2023-03-19T21:24:13;11.10;75.70
46492;DHT22;32206;51.446;6.792;2023-03-19T21:26:43;11.00;84.10
46492;DHT22;32206;51.446;6.792;2023-03-19T21:29:25;10.90;90.60
46492;DHT22;32206;51.446;6.792;2023-03-19T21:31:53;10.90;93.40
46492;DHT22;32206;51.446;6.792;2023-03-19T21:34:19;10.90;94.60
46492;DHT22;32206;51.446;6.792;2023-03-19T21:36:44;10.80;93.90
46492;DHT22;32206;51.446;6.792;2023-03-19T21:42:33;10.80;98.10
46492;DHT22;32206;51.446;6.792;2023-03-19T21:44:58;10.70;99.90
46492;DHT22;32206;51.446;6.792;2023-03-19T21:47:24;10.70;99.90
46492;DHT22;32206;51.446;6.792;2023-03-19T21:49:50;10.60;99.90
46492;DHT22;32206;51.446;6.792;2023-03-19T21:52:19;10.50;99.90
46492;DHT22;32206;51.446;6.792;2023-03-19T21:54:46;10.50;99.90
46492;DHT22;32206;51.446;6.792;2023-03-19T21:57:14;10.40;99.90
46492;DHT22;32206;51.446;6.792;2023-03-19T21:59:41;10.40;99.90
46492;DHT22;32206;51.446;6.792;2023-03-19T22:02:36;10.30;99.90
46492;DHT22;32206;51.446;6.792;2023-03-19T22:05:14;10.20;99.90
46492;DHT22;32206;51.446;6.792;2023-03-19T22:07:40;10.20;99.80
46492;DHT22;32206;51.446;6.792;2023-03-19T22:10:06;10.00;95.90
46492;DHT22;32206;51.446;6.792;2023-03-19T22:12:33;10.00;98.10